Time;durP1;ratioP1;P1;durP2;ratioP2;P2;SDS_P1;SDS_P2;PMS_P1;PMS_P2;Temp;Humidity;BMP_temperature;BMP_pressure;BME280_temperature;BME280_humidity;BME280_pressure;Samples;Min_cycle;Max_cycle;Signal;HPM_P1;HPM_P2
2023/08/18 00:01:28;;;;;;;3.80;2.60;;;;;;;;;;5043924;28;20053;-64
2023/08/18 00:03:57;;;;;;;8.65;2.85;;;;;;;;;;5042248;28;20040;-65
2023/08/18 00:06:25;;;;;;;5.43;2.75;;;;;;;;;;5044127;28;20132;-64
2023/08/18 00:08:54;;;;;;;6.53;2.58;;;;;;;;;;5044152;28;20139;-64
2023/08/18 00:11:22;;;;;;;8.68;2.80;;;;;;;;;;5044345;28;20048;-63
2023/08/18 00:13:51;;;;;;;4.47;2.60;;;;;;;;;;5040571;28;20130;-69
2023/08/18 00:16:20;;;;;;;2.80;2.10;;;;;;;;;;5043632;28;20080;-64
2023/08/18 00:18:49;;;;;;;3.70;2.20;;;;;;;;;;5044351;28;20051;-65
2023/08/18 00:21:17;;;;;;;5.93;2.20;;;;;;;;;;5044795;28;20049;-63
2023/08/18 00:23:45;;;;;;;3.97;2.67;;;;;;;;;;5042103;28;20056;-64
2023/08/18 00:26:14;;;;;;;4.55;2.60;;;;;;;;;;5041137;28;20134;-66
2023/08/18 00:28:42;;;;;;;4.03;2.10;;;;;;;;;;5041440;28;20052;-66
2023/08/18 00:31:10;;;;;;;5.75;2.28;;;;;;;;;;5044888;28;20198;-65
2023/08/18 00:33:40;;;;;;;3.97;2.47;;;;;;;;;;5043522;28;20521;-63
2023/08/18 00:36:08;;;;;;;3.65;2.10;;;;;;;;;;5042028;28;20122;-64
2023/08/18 00:38:37;;;;;;;13.02;4.85;;;;;;;;;;5043564;28;20080;-63
2023/08/18 00:41:05;;;;;;;6.35;3.28;;;;;;;;;;5044304;28;20933;-64
2023/08/18 00:43:33;;;;;;;6.82;2.85;;;;;;;;;;5041130;28;20049;-64
2023/08/18 00:46:02;;;;;;;4.35;2.42;;;;;;;;;;5042490;28;20045;-63
2023/08/18 00:48:30;;;;;;;4.03;2.35;;;;;;;;;;5044140;28;20138;-63
2023/08/18 00:51:01;;;;;;;6.78;2.13;;;;;;;;;;5040961;28;20567;-68
2023/08/18 00:53:31;;;;;;;3.05;2.13;;;;;;;;;;5040291;28;20068;-68
2023/08/18 00:55:59;;;;;;;8.02;2.45;;;;;;;;;;5042373;28;20053;-65
2023/08/18 00:58:29;;;;;;;9.30;2.30;;;;;;;;;;5043123;28;20049;-64
2023/08/18 01:00:57;;;;;;;3.45;2.22;;;;;;;;;;5043629;28;20060;-67
2023/08/18 01:03:26;;;;;;;2.85;2.33;;;;;;;;;;5045348;22;20144;-62
2023/08/18 01:05:58;;;;;;;5.90;2.10;;;;;;;;;;4977334;28;20061;-63
2023/08/18 01:08:28;;;;;;;4.32;2.05;;;;;;;;;;4983470;28;20706;-62
2023/08/18 01:11:00;;;;;;;4.80;1.70;;;;;;;;;;4981873;28;20078;-63
2023/08/18 01:13:31;;;;;;;4.20;1.90;;;;;;;;;;4981006;28;20093;-62
2023/08/18 01:16:00;;;;;;;3.45;1.73;;;;;;;;;;4982109;28;20043;-65
2023/08/18 01:18:30;;;;;;;5.72;2.08;;;;;;;;;;4981432;28;20535;-66
2023/08/18 01:21:00;;;;;;;3.90;1.85;;;;;;;;;;4982941;28;20140;-63
2023/08/18 01:23:38;;;;;;;3.67;2.03;;;;;;;;;;4977499;28;20565;-62
2023/08/18 01:26:06;;;;;;;4.40;2.13;;;;;;;;;;4985206;28;20521;-64
2023/08/18 01:28:35;;;;;;;3.67;2.40;;;;;;;;;;4982463;28;20535;-62
2023/08/18 01:31:05;;;;;;;4.20;2.38;;;;;;;;;;4983233;28;20047;-61
2023/08/18 01:33:36;;;;;;;4.40;2.47;;;;;;;;;;4979343;28;20039;-65
2023/08/18 01:36:06;;;;;;;3.78;2.22;;;;;;;;;;4981946;28;20483;-62
2023/08/18 01:38:34;;;;;;;9.30;2.63;;;;;;;;;;4979752;28;20459;-61
2023/08/18 01:41:06;;;;;;;3.38;2.22;;;;;;;;;;4980658;28;20054;-63
2023/08/18 01:43:34;;;;;;;3.78;2.17;;;;;;;;;;4979822;28;20058;-62
2023/08/18 01:46:03;;;;;;;3.83;2.20;;;;;;;;;;4979772;28;20092;-62
2023/08/18 01:48:31;;;;;;;6.80;2.28;;;;;;;;;;4979098;28;20046;-62
2023/08/18 01:51:00;;;;;;;8.10;2.10;;;;;;;;;;4980145;28;20467;-62
2023/08/18 01:53:28;;;;;;;2.92;2.05;;;;;;;;;;4980276;28;20046;-62
2023/08/18 01:55:56;;;;;;;2.55;1.90;;;;;;;;;;4980221;28;20537;-64
2023/08/18 01:58:26;;;;;;;2.97;1.98;;;;;;;;;;4980690;28;20046;-62
2023/08/18 02:00:56;;;;;;;9.13;2.30;;;;;;;;;;4978793;28;20132;-62
2023/08/18 02:03:24;;;;;;;2.35;1.65;;;;;;;;;;4978735;28;20640;-62
2023/08/18 02:05:53;;;;;;;8.23;2.78;;;;;;;;;;4981240;28;20144;-62
2023/08/18 02:08:22;;;;;;;4.22;2.10;;;;;;;;;;4981846;28;20053;-62
2023/08/18 02:10:50;;;;;;;3.33;2.25;;;;;;;;;;4978576;28;20132;-61
2023/08/18 02:13:19;;;;;;;8.70;2.63;;;;;;;;;;4981386;28;20077;-64
2023/08/18 02:15:48;;;;;;;3.40;2.10;;;;;;;;;;4982168;28;20078;-63
2023/08/18 02:18:17;;;;;;;3.25;2.10;;;;;;;;;;4983160;28;20423;-61
2023/08/18 02:20:45;;;;;;;4.25;2.33;;;;;;;;;;4980767;28;20054;-62
2023/08/18 02:23:14;;;;;;;3.30;2.03;;;;;;;;;;4981940;28;20049;-63
2023/08/18 02:25:42;;;;;;;5.57;2.47;;;;;;;;;;4975535;28;20157;-65
2023/08/18 02:28:10;;;;;;;3.25;2.33;;;;;;;;;;4980646;28;20638;-63
2023/08/18 02:30:39;;;;;;;3.80;2.08;;;;;;;;;;4980472;28;20184;-62
2023/08/18 02:33:08;;;;;;;2.88;1.95;;;;;;;;;;4981672;28;20077;-61
2023/08/18 02:35:37;;;;;;;5.00;2.00;;;;;;;;;;4980351;28;20462;-62
2023/08/18 02:38:09;;;;;;;4.35;2.20;;;;;;;;;;4981201;28;20411;-62
2023/08/18 02:40:37;;;;;;;6.05;1.95;;;;;;;;;;4982418;28;20517;-64
2023/08/18 02:43:05;;;;;;;3.70;2.35;;;;;;;;;;4977690;28;20050;-62
2023/08/18 02:45:34;;;;;;;4.45;2.30;;;;;;;;;;4979539;28;20148;-63
2023/08/18 02:48:02;;;;;;;5.50;2.20;;;;;;;;;;4981780;28;20046;-62
2023/08/18 02:50:32;;;;;;;5.40;2.40;;;;;;;;;;4981506;28;20062;-62
2023/08/18 02:53:03;;;;;;;3.22;2.20;;;;;;;;;;4982099;28;20066;-62
2023/08/18 02:55:32;;;;;;;3.25;1.83;;;;;;;;;;4979555;28;20518;-62
2023/08/18 02:58:01;;;;;;;3.90;2.33;;;;;;;;;;4980868;28;20050;-62
2023/08/18 03:00:31;;;;;;;2.45;1.83;;;;;;;;;;4980778;28;20073;-64
2023/08/18 03:03:00;;;;;;;2.63;1.70;;;;;;;;;;4980018;28;20150;-62
2023/08/18 03:05:29;;;;;;;3.55;2.25;;;;;;;;;;4980889;28;20152;-62
2023/08/18 03:07:59;;;;;;;5.03;2.05;;;;;;;;;;4981711;28;20038;-63
2023/08/18 03:10:27;;;;;;;2.72;2.00;;;;;;;;;;4978065;28;20132;-63
2023/08/18 03:12:56;;;;;;;4.75;2.35;;;;;;;;;;4980858;28;20062;-62
2023/08/18 03:15:24;;;;;;;6.20;2.40;;;;;;;;;;4980292;28;20061;-64
2023/08/18 03:17:52;;;;;;;8.20;2.10;;;;;;;;;;4983155;28;20478;-62
2023/08/18 03:20:21;;;;;;;4.65;2.10;;;;;;;;;;4978981;28;20177;-61
2023/08/18 03:22:49;;;;;;;5.15;2.10;;;;;;;;;;4977554;28;20141;-62
2023/08/18 03:25:19;;;;;;;4.70;2.40;;;;;;;;;;4979323;28;20082;-62
2023/08/18 03:27:48;;;;;;;3.80;2.17;;;;;;;;;;4982742;28;20042;-61
2023/08/18 03:30:16;;;;;;;3.25;1.90;;;;;;;;;;4979227;28;20069;-62
2023/08/18 03:32:47;;;;;;;6.53;2.28;;;;;;;;;;4982170;28;20925;-61
2023/08/18 03:35:16;;;;;;;3.97;2.28;;;;;;;;;;4978265;28;20042;-62
2023/08/18 03:37:44;;;;;;;6.85;2.55;;;;;;;;;;4982231;28;20427;-62
2023/08/18 03:40:13;;;;;;;2.78;1.98;;;;;;;;;;4980614;28;20057;-64
2023/08/18 03:42:43;;;;;;;3.35;1.95;;;;;;;;;;4982704;28;20078;-61
2023/08/18 03:45:11;;;;;;;5.63;2.00;;;;;;;;;;4980395;28;20086;-62
2023/08/18 03:47:41;;;;;;;3.92;2.13;;;;;;;;;;4979899;28;20132;-62
2023/08/18 03:50:10;;;;;;;3.28;2.17;;;;;;;;;;4979492;28;20069;-61
2023/08/18 03:52:38;;;;;;;4.97;2.38;;;;;;;;;;4981127;28;20039;-63
2023/08/18 03:55:07;;;;;;;3.67;1.98;;;;;;;;;;4983186;28;20054;-61
2023/08/18 03:57:36;;;;;;;2.83;1.65;;;;;;;;;;4982714;28;20536;-61
2023/08/18 04:00:09;;;;;;;4.05;2.00;;;;;;;;;;4978030;28;20074;-63
2023/08/18 04:02:37;;;;;;;3.88;2.13;;;;;;;;;;4978397;28;20384;-62
2023/08/18 04:05:06;;;;;;;3.88;2.13;;;;;;;;;;4975667;28;20054;-64
2023/08/18 04:07:35;;;;;;;4.32;1.83;;;;;;;;;;4981596;28;20046;-63
2023/08/18 04:10:03;;;;;;;4.43;1.95;;;;;;;;;;4977255;28;20112;-63
2023/08/18 04:12:32;;;;;;;3.60;2.00;;;;;;;;;;4980320;28;20492;-62
2023/08/18 04:15:00;;;;;;;5.63;1.80;;;;;;;;;;4981339;28;20128;-62
2023/08/18 04:17:30;;;;;;;3.05;2.05;;;;;;;;;;4979083;28;20042;-62
2023/08/18 04:19:58;;;;;;;6.03;2.40;;;;;;;;;;4980462;28;20058;-62
2023/08/18 04:22:27;;;;;;;3.05;2.08;;;;;;;;;;4980427;28;20070;-61
2023/08/18 04:24:55;;;;;;;3.58;2.00;;;;;;;;;;4976365;28;20419;-63
2023/08/18 04:27:24;;;;;;;6.63;2.13;;;;;;;;;;4982781;28;20081;-62
2023/08/18 04:29:52;;;;;;;3.75;2.00;;;;;;;;;;4981406;28;20097;-64
2023/08/18 04:32:20;;;;;;;4.38;2.35;;;;;;;;;;4979563;28;20515;-62
2023/08/18 04:34:50;;;;;;;3.80;2.38;;;;;;;;;;4976651;28;20140;-64
2023/08/18 04:37:19;;;;;;;4.22;2.17;;;;;;;;;;4979908;28;20038;-62
2023/08/18 04:39:47;;;;;;;5.05;2.03;;;;;;;;;;4982197;28;20117;-63
2023/08/18 04:42:15;;;;;;;7.15;2.25;;;;;;;;;;4985357;28;20069;-63
2023/08/18 04:44:44;;;;;;;3.85;1.88;;;;;;;;;;4982013;28;20046;-62
2023/08/18 04:47:12;;;;;;;3.63;2.22;;;;;;;;;;4985834;28;20086;-62
2023/08/18 04:49:40;;;;;;;8.35;1.98;;;;;;;;;;4982170;28;20149;-62
2023/08/18 04:52:11;;;;;;;3.30;2.25;;;;;;;;;;4978452;28;20058;-64
2023/08/18 04:54:39;;;;;;;6.05;2.50;;;;;;;;;;4983288;28;20050;-62
2023/08/18 04:57:08;;;;;;;3.33;2.20;;;;;;;;;;4982202;28;20133;-62
2023/08/18 04:59:36;;;;;;;4.90;2.20;;;;;;;;;;4982910;28;20141;-64
2023/08/18 05:02:04;;;;;;;5.30;2.10;;;;;;;;;;4983446;28;20046;-62
2023/08/18 05:04:33;;;;;;;5.10;2.25;;;;;;;;;;4977790;28;20077;-62
2023/08/18 05:07:01;;;;;;;4.93;2.33;;;;;;;;;;4981942;28;20144;-61
2023/08/18 05:09:34;;;;;;;3.45;2.03;;;;;;;;;;4983409;28;22352;-62
2023/08/18 05:12:03;;;;;;;3.00;1.83;;;;;;;;;;4981100;28;20042;-63
2023/08/18 05:14:31;;;;;;;3.15;2.10;;;;;;;;;;4982244;28;20537;-62
2023/08/18 05:16:59;;;;;;;7.00;2.42;;;;;;;;;;4982460;28;20058;-61
2023/08/18 05:19:28;;;;;;;4.32;2.45;;;;;;;;;;4984869;28;20054;-61
2023/08/18 05:21:56;;;;;;;7.28;2.33;;;;;;;;;;4981991;28;20086;-62
2023/08/18 05:24:24;;;;;;;5.63;2.80;;;;;;;;;;4978836;28;20066;-61
2023/08/18 05:26:54;;;;;;;3.75;2.17;;;;;;;;;;4982103;28;20096;-63
2023/08/18 05:29:22;;;;;;;3.78;2.15;;;;;;;;;;4985733;28;20128;-62
2023/08/18 05:31:51;;;;;;;3.95;2.47;;;;;;;;;;4976323;28;20058;-61
2023/08/18 05:34:19;;;;;;;3.72;2.25;;;;;;;;;;4983171;28;20144;-62
2023/08/18 05:36:48;;;;;;;3.65;2.15;;;;;;;;;;4981789;28;20627;-61
2023/08/18 05:39:16;;;;;;;4.38;2.30;;;;;;;;;;4982029;28;20458;-61
2023/08/18 05:41:45;;;;;;;3.72;2.22;;;;;;;;;;4983201;28;20140;-61
2023/08/18 05:44:15;;;;;;;4.15;2.50;;;;;;;;;;4981373;28;20050;-61
2023/08/18 05:46:43;;;;;;;7.20;2.40;;;;;;;;;;4978612;28;20050;-61
2023/08/18 05:49:11;;;;;;;4.28;2.22;;;;;;;;;;4980049;28;20050;-61
2023/08/18 05:51:42;;;;;;;3.17;2.17;;;;;;;;;;4983667;28;20078;-62
2023/08/18 05:54:11;;;;;;;5.85;2.42;;;;;;;;;;4982162;28;20047;-61
2023/08/18 05:56:41;;;;;;;6.65;2.60;;;;;;;;;;4978924;28;20057;-61
2023/08/18 05:59:09;;;;;;;6.22;2.38;;;;;;;;;;4981324;28;20046;-61
2023/08/18 06:01:39;;;;;;;4.68;2.58;;;;;;;;;;4983119;28;20124;-62
2023/08/18 06:04:08;;;;;;;5.43;2.17;;;;;;;;;;4976309;28;20518;-62
2023/08/18 06:06:36;;;;;;;3.30;2.33;;;;;;;;;;4982024;28;20497;-61
2023/08/18 06:09:05;;;;;;;4.68;2.45;;;;;;;;;;4972111;28;20050;-62
2023/08/18 06:11:33;;;;;;;4.72;1.90;;;;;;;;;;4979843;28;20053;-62
2023/08/18 06:14:02;;;;;;;7.32;2.88;;;;;;;;;;4973565;28;20484;-61
2023/08/18 06:16:30;;;;;;;8.52;2.38;;;;;;;;;;4972354;28;20487;-61
2023/08/18 06:19:00;;;;;;;4.63;2.67;;;;;;;;;;4973681;28;20061;-61
2023/08/18 06:21:28;;;;;;;7.68;2.85;;;;;;;;;;4972135;28;20543;-62
2023/08/18 06:23:57;;;;;;;8.68;2.72;;;;;;;;;;4973960;28;20099;-61
2023/08/18 06:26:25;;;;;;;6.38;2.63;;;;;;;;;;4976422;28;20090;-64
2023/08/18 06:28:53;;;;;;;6.57;2.63;;;;;;;;;;4976542;28;20082;-62
2023/08/18 06:31:22;;;;;;;5.20;2.65;;;;;;;;;;4980267;28;20161;-62
2023/08/18 06:33:50;;;;;;;3.72;2.50;;;;;;;;;;4976428;28;20077;-61
2023/08/18 06:36:20;;;;;;;3.33;2.33;;;;;;;;;;4981384;28;20346;-61
2023/08/18 06:38:49;;;;;;;4.57;2.45;;;;;;;;;;4981561;28;20057;-61
2023/08/18 06:41:17;;;;;;;4.13;2.35;;;;;;;;;;4977807;28;20073;-61
2023/08/18 06:43:45;;;;;;;3.22;2.00;;;;;;;;;;4978616;28;20136;-62
2023/08/18 06:46:16;;;;;;;6.78;2.70;;;;;;;;;;4980198;28;20596;-62
2023/08/18 06:48:44;;;;;;;3.13;1.65;;;;;;;;;;4973641;28;20042;-61
2023/08/18 06:51:13;;;;;;;3.80;2.22;;;;;;;;;;4976994;28;20054;-65
2023/08/18 06:53:42;;;;;;;2.80;2.08;;;;;;;;;;4974483;28;20499;-63
2023/08/18 06:56:11;;;;;;;8.20;2.50;;;;;;;;;;4979421;28;20081;-61
2023/08/18 06:58:39;;;;;;;4.07;1.80;;;;;;;;;;4978495;28;20097;-64
2023/08/18 07:01:08;;;;;;;7.85;2.20;;;;;;;;;;4976514;28;20546;-63
2023/08/18 07:03:36;;;;;;;3.97;1.92;;;;;;;;;;4978153;28;20046;-62
2023/08/18 07:06:05;;;;;;;5.43;2.20;;;;;;;;;;4978835;28;20691;-61
2023/08/18 07:08:33;;;;;;;4.10;2.20;;;;;;;;;;4975740;28;20054;-62
2023/08/18 07:11:03;;;;;;;4.53;2.10;;;;;;;;;;4970905;28;20124;-62
2023/08/18 07:13:32;;;;;;;4.63;2.20;;;;;;;;;;4971920;28;20042;-61
2023/08/18 07:16:00;;;;;;;4.22;1.85;;;;;;;;;;4976808;28;20046;-62
2023/08/18 07:18:29;;;;;;;2.47;1.92;;;;;;;;;;4979359;28;20046;-62
2023/08/18 07:20:59;;;;;;;2.28;1.65;;;;;;;;;;4979291;28;20137;-63
2023/08/18 07:23:27;;;;;;;4.03;1.98;;;;;;;;;;4978219;28;20051;-61
2023/08/18 07:25:56;;;;;;;3.40;1.70;;;;;;;;;;4975840;28;20045;-61
2023/08/18 07:28:26;;;;;;;4.75;1.70;;;;;;;;;;4979509;28;20097;-65
2023/08/18 07:30:55;;;;;;;2.10;1.80;;;;;;;;;;4975562;28;20137;-61
2023/08/18 07:33:23;;;;;;;4.03;1.70;;;;;;;;;;4973951;28;20058;-62
2023/08/18 07:35:51;;;;;;;3.20;1.80;;;;;;;;;;4975229;28;20525;-62
2023/08/18 07:38:20;;;;;;;2.50;1.55;;;;;;;;;;4978089;28;20172;-62
2023/08/18 07:40:48;;;;;;;2.75;1.75;;;;;;;;;;4977625;28;20133;-61
2023/08/18 07:43:16;;;;;;;4.18;1.77;;;;;;;;;;4976460;28;20046;-62
2023/08/18 07:45:46;;;;;;;5.88;2.55;;;;;;;;;;4977169;28;20042;-62
2023/08/18 07:48:15;;;;;;;3.08;1.92;;;;;;;;;;4978711;28;20096;-61
2023/08/18 07:50:43;;;;;;;3.97;1.60;;;;;;;;;;4979421;28;20496;-64
2023/08/18 07:53:12;;;;;;;3.30;1.33;;;;;;;;;;4976239;28;20081;-65
2023/08/18 07:55:40;;;;;;;2.40;1.30;;;;;;;;;;4979039;28;20065;-61
2023/08/18 07:58:09;;;;;;;2.47;1.55;;;;;;;;;;4974305;28;20047;-61
2023/08/18 08:00:37;;;;;;;3.28;1.42;;;;;;;;;;4973318;28;20078;-65
2023/08/18 08:03:07;;;;;;;3.08;1.63;;;;;;;;;;4977023;28;20076;-64
2023/08/18 08:05:36;;;;;;;3.83;1.48;;;;;;;;;;4976269;28;20126;-61
2023/08/18 08:08:05;;;;;;;2.33;1.60;;;;;;;;;;4979438;28;20069;-62
2023/08/18 08:10:33;;;;;;;3.72;2.00;;;;;;;;;;4981356;28;20141;-63
2023/08/18 08:13:02;;;;;;;5.13;1.75;;;;;;;;;;4977434;28;20116;-63
2023/08/18 08:15:31;;;;;;;2.35;1.55;;;;;;;;;;4979124;28;20051;-64
2023/08/18 08:18:03;;;;;;;2.17;1.80;;;;;;;;;;4977581;28;20057;-61
2023/08/18 08:20:33;;;;;;;2.95;1.70;;;;;;;;;;4980356;28;20468;-66
2023/08/18 08:23:01;;;;;;;2.35;1.65;;;;;;;;;;4979044;28;20498;-62
2023/08/18 08:25:30;;;;;;;2.60;1.55;;;;;;;;;;4975861;28;20082;-62
2023/08/18 08:27:58;;;;;;;2.47;1.42;;;;;;;;;;4980050;28;20144;-63
2023/08/18 08:30:28;;;;;;;2.08;1.50;;;;;;;;;;4979401;28;20072;-62
2023/08/18 08:32:59;;;;;;;2.83;1.73;;;;;;;;;;4977558;28;20058;-62
2023/08/18 08:35:28;;;;;;;2.75;1.67;;;;;;;;;;4979568;28;20598;-62
2023/08/18 08:37:58;;;;;;;4.15;1.73;;;;;;;;;;4981254;28;20533;-62
2023/08/18 08:40:27;;;;;;;3.95;1.80;;;;;;;;;;4983520;28;20089;-61
2023/08/18 08:42:56;;;;;;;2.55;1.80;;;;;;;;;;4978046;28;20046;-61
2023/08/18 08:45:31;;;;;;;6.00;1.83;;;;;;;;;;4970685;28;20167;-62
2023/08/18 08:48:01;;;;;;;4.50;1.73;;;;;;;;;;4976646;28;20716;-62
2023/08/18 08:50:31;;;;;;;2.45;1.52;;;;;;;;;;4973084;28;20595;-63
2023/08/18 08:53:02;;;;;;;2.28;1.67;;;;;;;;;;4970550;28;20102;-62
2023/08/18 08:55:32;;;;;;;1.58;1.42;;;;;;;;;;4975012;28;20062;-62
2023/08/18 08:58:01;;;;;;;6.97;2.28;;;;;;;;;;4977240;28;20046;-63
2023/08/18 09:00:30;;;;;;;3.08;2.10;;;;;;;;;;4974412;28;20384;-64
2023/08/18 09:03:01;;;;;;;2.60;1.63;;;;;;;;;;4969121;28;20047;-63
2023/08/18 09:05:31;;;;;;;3.00;1.80;;;;;;;;;;4972323;28;20046;-61
2023/08/18 09:07:59;;;;;;;1.52;1.42;;;;;;;;;;4976487;28;20045;-62
2023/08/18 09:10:29;;;;;;;2.13;1.65;;;;;;;;;;4973636;28;20058;-63
2023/08/18 09:12:57;;;;;;;5.78;1.95;;;;;;;;;;4984309;28;20132;-63
2023/08/18 09:15:26;;;;;;;4.53;1.92;;;;;;;;;;4980372;28;20066;-62
2023/08/18 09:17:54;;;;;;;5.10;1.70;;;;;;;;;;4982589;28;20046;-62
2023/08/18 09:20:23;;;;;;;3.85;1.70;;;;;;;;;;4975397;28;20448;-62
2023/08/18 09:22:56;;;;;;;3.42;1.73;;;;;;;;;;4976190;28;20042;-64
2023/08/18 09:25:24;;;;;;;2.95;2.05;;;;;;;;;;4979212;28;20057;-62
2023/08/18 09:27:56;;;;;;;2.35;1.88;;;;;;;;;;4977698;28;20078;-62
2023/08/18 09:30:25;;;;;;;3.63;2.00;;;;;;;;;;4974636;28;20392;-62
2023/08/18 09:32:53;;;;;;;3.17;1.75;;;;;;;;;;4974530;28;20507;-62
2023/08/18 09:35:22;;;;;;;3.05;1.48;;;;;;;;;;4977967;28;20046;-62
2023/08/18 09:37:57;;;;;;;5.85;1.60;;;;;;;;;;4979951;28;20061;-62
2023/08/18 09:40:26;;;;;;;2.10;1.70;;;;;;;;;;4975185;28;20046;-62
2023/08/18 09:42:54;;;;;;;6.05;1.80;;;;;;;;;;4974089;28;20144;-62
2023/08/18 09:45:26;;;;;;;7.13;1.70;;;;;;;;;;4974241;28;20504;-62
2023/08/18 09:47:55;;;;;;;3.20;1.30;;;;;;;;;;4974792;28;20050;-62
2023/08/18 09:50:25;;;;;;;3.20;1.70;;;;;;;;;;4977450;28;20058;-62
2023/08/18 09:52:54;;;;;;;2.97;1.60;;;;;;;;;;4976876;28;20050;-63
2023/08/18 09:55:27;;;;;;;2.78;1.80;;;;;;;;;;4977884;28;20078;-64
2023/08/18 09:57:58;;;;;;;1.83;1.55;;;;;;;;;;4977599;28;20053;-64
2023/08/18 10:00:28;;;;;;;2.00;1.48;;;;;;;;;;4975471;28;20447;-62
2023/08/18 10:03:00;;;;;;;2.85;1.70;;;;;;;;;;4974241;28;20042;-63
2023/08/18 10:05:29;;;;;;;3.03;1.50;;;;;;;;;;4973869;28;20082;-62
2023/08/18 10:07:57;;;;;;;3.15;1.42;;;;;;;;;;4975118;28;21195;-62
2023/08/18 10:10:26;;;;;;;3.30;1.30;;;;;;;;;;4970938;28;20069;-62
2023/08/18 10:12:55;;;;;;;2.20;1.35;;;;;;;;;;4972476;28;20050;-63
2023/08/18 10:15:24;;;;;;;2.13;1.35;;;;;;;;;;4975530;28;20054;-63
2023/08/18 10:17:54;;;;;;;4.50;1.90;;;;;;;;;;4974175;28;20054;-64
2023/08/18 10:20:26;;;;;;;1.65;1.35;;;;;;;;;;4977511;28;20049;-63
2023/08/18 10:22:55;;;;;;;2.80;1.52;;;;;;;;;;4981113;28;20093;-63
2023/08/18 10:25:25;;;;;;;3.90;1.33;;;;;;;;;;4979280;28;20062;-62
2023/08/18 10:27:53;;;;;;;2.60;1.60;;;;;;;;;;4976937;28;20140;-62
2023/08/18 10:30:25;;;;;;;4.38;1.55;;;;;;;;;;4976882;28;20574;-62
2023/08/18 10:33:00;;;;;;;3.05;1.52;;;;;;;;;;4975365;28;20587;-64
2023/08/18 10:35:29;;;;;;;2.90;1.70;;;;;;;;;;4972213;28;20050;-63
2023/08/18 10:37:58;;;;;;;2.22;1.35;;;;;;;;;;4982256;28;20078;-64
2023/08/18 10:40:27;;;;;;;2.15;1.23;;;;;;;;;;4984516;28;20053;-63
2023/08/18 10:42:59;;;;;;;1.83;1.58;;;;;;;;;;4977339;28;20046;-64
2023/08/18 10:45:28;;;;;;;3.08;1.40;;;;;;;;;;4979174;28;20052;-65
2023/08/18 10:47:59;;;;;;;1.73;1.13;;;;;;;;;;4979222;28;20050;-62
2023/08/18 10:50:29;;;;;;;3.38;1.60;;;;;;;;;;4985218;28;20343;-62
2023/08/18 10:52:58;;;;;;;1.63;1.27;;;;;;;;;;4980656;28;20260;-62
2023/08/18 10:55:26;;;;;;;1.63;1.10;;;;;;;;;;4984566;28;20058;-63
2023/08/18 10:57:55;;;;;;;2.05;1.30;;;;;;;;;;4984080;28;20050;-62
2023/08/18 11:00:24;;;;;;;3.03;1.73;;;;;;;;;;4973425;28;20528;-62
2023/08/18 11:02:53;;;;;;;1.65;1.48;;;;;;;;;;4981918;28;20487;-62
2023/08/18 11:05:23;;;;;;;1.20;1.10;;;;;;;;;;4983303;28;20046;-63
2023/08/18 11:07:52;;;;;;;5.28;1.45;;;;;;;;;;4981140;28;20077;-63
2023/08/18 11:10:22;;;;;;;2.97;1.70;;;;;;;;;;4980462;28;20455;-63
2023/08/18 11:12:52;;;;;;;2.05;1.33;;;;;;;;;;4975980;28;20500;-64
2023/08/18 11:15:24;;;;;;;1.50;1.13;;;;;;;;;;4974246;28;20050;-63
2023/08/18 11:17:52;;;;;;;4.32;1.60;;;;;;;;;;4979295;28;20065;-65
2023/08/18 11:20:22;;;;;;;2.10;1.40;;;;;;;;;;4976640;28;20097;-61
2023/08/18 11:22:52;;;;;;;2.17;1.55;;;;;;;;;;4978852;28;20634;-63
2023/08/18 11:25:21;;;;;;;3.08;1.30;;;;;;;;;;4977398;28;20307;-66
2023/08/18 11:27:51;;;;;;;2.03;1.23;;;;;;;;;;4979985;28;20055;-63
2023/08/18 11:30:19;;;;;;;2.88;1.20;;;;;;;;;;4979335;28;20057;-63
2023/08/18 11:32:48;;;;;;;1.73;1.02;;;;;;;;;;4980270;28;20459;-62
2023/08/18 11:35:18;;;;;;;2.05;1.30;;;;;;;;;;4974952;28;20428;-63
2023/08/18 11:37:49;;;;;;;2.83;1.50;;;;;;;;;;4970995;28;20054;-63
2023/08/18 11:40:19;;;;;;;3.25;1.40;;;;;;;;;;4970048;28;20347;-62
2023/08/18 11:42:48;;;;;;;1.50;1.20;;;;;;;;;;4976919;28;20125;-63
2023/08/18 11:45:17;;;;;;;1.98;1.77;;;;;;;;;;4974433;28;20159;-64
2023/08/18 11:47:47;;;;;;;2.67;1.65;;;;;;;;;;4977544;28;20057;-62
2023/08/18 11:50:20;;;;;;;3.30;1.52;;;;;;;;;;4980045;28;20058;-63
2023/08/18 11:52:52;;;;;;;1.50;1.40;;;;;;;;;;4981004;28;20109;-61
2023/08/18 11:55:31;;;;;;;7.03;2.03;;;;;;;;;;4982328;28;20090;-65
2023/08/18 11:57:59;;;;;;;2.35;1.58;;;;;;;;;;4981000;28;20050;-62
2023/08/18 12:00:38;;;;;;;5.10;1.63;;;;;;;;;;4971080;28;20042;-62
2023/08/18 12:03:07;;;;;;;2.83;1.45;;;;;;;;;;4976986;28;20451;-62
2023/08/18 12:05:38;;;;;;;2.97;1.80;;;;;;;;;;4981790;28;20411;-63
2023/08/18 12:08:10;;;;;;;2.20;1.67;;;;;;;;;;4980268;28;20101;-63
2023/08/18 12:10:40;;;;;;;2.60;1.58;;;;;;;;;;4981091;28;20139;-64
2023/08/18 12:13:08;;;;;;;3.30;1.80;;;;;;;;;;4980575;28;20739;-64
2023/08/18 12:15:37;;;;;;;4.18;1.70;;;;;;;;;;4975265;28;20597;-62
2023/08/18 12:18:06;;;;;;;4.22;1.50;;;;;;;;;;4977599;28;20051;-61
2023/08/18 12:20:35;;;;;;;3.47;1.75;;;;;;;;;;4981559;28;20444;-62
2023/08/18 12:23:04;;;;;;;2.25;1.58;;;;;;;;;;4978014;28;20499;-62
2023/08/18 12:25:33;;;;;;;2.05;1.52;;;;;;;;;;4980629;28;20053;-63
2023/08/18 12:28:03;;;;;;;2.25;1.70;;;;;;;;;;4981744;28;20053;-62
2023/08/18 12:30:32;;;;;;;3.88;1.60;;;;;;;;;;4979530;28;20152;-63
2023/08/18 12:33:00;;;;;;;1.55;1.35;;;;;;;;;;4980104;28;20049;-64
2023/08/18 12:35:28;;;;;;;1.83;1.55;;;;;;;;;;4979173;28;20050;-63
2023/08/18 12:37:57;;;;;;;2.30;1.60;;;;;;;;;;4978470;28;20058;-62
2023/08/18 12:40:25;;;;;;;1.90;1.30;;;;;;;;;;4973761;28;20054;-62
2023/08/18 12:42:55;;;;;;;2.75;1.45;;;;;;;;;;4980645;28;20128;-63
2023/08/18 12:45:24;;;;;;;2.53;1.80;;;;;;;;;;4975684;28;20129;-62
2023/08/18 12:47:52;;;;;;;1.58;1.42;;;;;;;;;;4974442;28;20054;-62
2023/08/18 12:50:22;;;;;;;1.67;1.52;;;;;;;;;;4980812;28;20500;-63
2023/08/18 12:52:50;;;;;;;2.30;1.60;;;;;;;;;;4979802;28;20105;-64
2023/08/18 12:55:18;;;;;;;1.83;1.50;;;;;;;;;;4980640;28;20491;-63
2023/08/18 12:57:47;;;;;;;1.73;1.50;;;;;;;;;;4985728;28;20097;-63
2023/08/18 13:00:17;;;;;;;1.80;1.50;;;;;;;;;;4984068;28;20053;-63
2023/08/18 13:02:45;;;;;;;1.70;1.38;;;;;;;;;;4983820;28;20213;-63
2023/08/18 13:05:14;;;;;;;2.15;1.30;;;;;;;;;;4983920;28;20492;-63
2023/08/18 13:07:42;;;;;;;1.60;1.30;;;;;;;;;;4984610;28;20049;-63
2023/08/18 13:10:11;;;;;;;2.55;1.48;;;;;;;;;;4985132;28;20062;-63
2023/08/18 13:12:39;;;;;;;1.70;1.45;;;;;;;;;;4980304;28;20075;-63
2023/08/18 13:15:08;;;;;;;3.33;1.85;;;;;;;;;;4986464;28;20535;-62
2023/08/18 13:17:39;;;;;;;3.47;1.48;;;;;;;;;;4984633;28;20058;-63
2023/08/18 13:20:08;;;;;;;2.80;1.70;;;;;;;;;;4981773;28;20065;-62
2023/08/18 13:22:40;;;;;;;1.95;1.40;;;;;;;;;;4982604;28;20053;-66
2023/08/18 13:25:10;;;;;;;2.72;1.52;;;;;;;;;;4982839;28;20133;-63
2023/08/18 13:27:39;;;;;;;2.70;1.63;;;;;;;;;;4984209;28;20194;-63
2023/08/18 13:30:08;;;;;;;1.92;1.40;;;;;;;;;;4988190;28;20656;-64
2023/08/18 13:32:38;;;;;;;2.10;1.38;;;;;;;;;;4985033;28;20046;-62
2023/08/18 13:35:09;;;;;;;2.08;1.52;;;;;;;;;;4982749;28;20511;-64
2023/08/18 13:37:38;;;;;;;1.88;1.30;;;;;;;;;;4984990;28;20042;-66
2023/08/18 13:40:08;;;;;;;2.00;1.33;;;;;;;;;;4986587;28;20436;-63
2023/08/18 13:42:36;;;;;;;2.80;1.63;;;;;;;;;;4985274;28;20069;-61
2023/08/18 13:45:04;;;;;;;1.80;1.30;;;;;;;;;;4981651;28;20216;-63
2023/08/18 13:47:33;;;;;;;2.10;1.60;;;;;;;;;;4980042;28;20101;-63
2023/08/18 13:50:03;;;;;;;2.42;1.30;;;;;;;;;;4983674;28;20065;-63
2023/08/18 13:52:31;;;;;;;2.30;1.40;;;;;;;;;;4986283;28;20058;-62
2023/08/18 13:55:00;;;;;;;2.45;1.67;;;;;;;;;;4981115;28;20519;-62
2023/08/18 13:57:29;;;;;;;2.05;1.65;;;;;;;;;;4984081;28;20348;-65
2023/08/18 13:59:57;;;;;;;3.33;1.58;;;;;;;;;;4981916;28;20054;-62
2023/08/18 14:02:26;;;;;;;2.55;1.80;;;;;;;;;;4982897;28;20062;-62
2023/08/18 14:04:54;;;;;;;2.15;1.60;;;;;;;;;;4981953;28;20105;-62
2023/08/18 14:07:24;;;;;;;3.15;1.52;;;;;;;;;;4984013;28;20552;-62
2023/08/18 14:09:52;;;;;;;2.60;1.60;;;;;;;;;;4986325;28;20050;-62
2023/08/18 14:12:21;;;;;;;5.13;1.75;;;;;;;;;;4984054;28;20494;-63
2023/08/18 14:14:50;;;;;;;3.10;1.83;;;;;;;;;;4984238;28;20450;-64
2023/08/18 14:17:33;;;;;;;2.83;1.77;;;;;;;;;;4982128;28;20038;-62
2023/08/18 14:20:06;;;;;;;4.00;1.60;;;;;;;;;;4984634;28;20050;-62
2023/08/18 14:22:36;;;;;;;3.05;1.63;;;;;;;;;;4986276;28;20050;-62
2023/08/18 14:25:05;;;;;;;2.03;1.60;;;;;;;;;;4983825;28;20129;-63
2023/08/18 14:27:33;;;;;;;2.47;1.83;;;;;;;;;;4983279;28;20467;-61
2023/08/18 14:30:03;;;;;;;1.83;1.60;;;;;;;;;;4981577;28;20082;-62
2023/08/18 14:32:32;;;;;;;4.20;1.77;;;;;;;;;;4978633;28;20046;-65
2023/08/18 14:35:03;;;;;;;2.17;1.42;;;;;;;;;;4973850;28;20129;-63
2023/08/18 14:37:32;;;;;;;3.17;1.70;;;;;;;;;;4978839;28;20054;-63
2023/08/18 14:40:05;;;;;;;3.75;1.67;;;;;;;;;;4979988;28;20057;-64
2023/08/18 14:42:34;;;;;;;2.33;1.55;;;;;;;;;;4980279;28;20058;-62
2023/08/18 14:45:04;;;;;;;2.03;1.60;;;;;;;;;;4978369;28;20436;-63
2023/08/18 14:47:33;;;;;;;2.35;1.40;;;;;;;;;;4978651;28;20393;-65
2023/08/18 14:50:04;;;;;;;1.70;1.60;;;;;;;;;;4980202;28;20466;-63
2023/08/18 14:52:33;;;;;;;3.33;1.45;;;;;;;;;;4977685;28;20046;-63
2023/08/18 14:55:04;;;;;;;1.83;1.55;;;;;;;;;;4972973;28;20050;-64